createdAt,value
2023-03-27T00:01:17.791Z,101706.16
2023-03-27T00:03:44.812Z,101711.28
2023-03-27T00:06:16.780Z,101716.16
2023-03-27T00:08:51.107Z,101715.38
2023-03-27T00:11:18.622Z,101718.22
2023-03-27T00:13:50.309Z,101722.50
2023-03-27T00:16:22.701Z,101724.34
2023-03-27T00:18:49.667Z,101726.78
2023-03-27T00:21:16.934Z,101732.06
2023-03-27T00:23:43.375Z,101728.63
2023-03-27T00:26:11.871Z,101721.88
2023-03-27T00:28:38.446Z,101727.19
2023-03-27T00:31:10.827Z,101736.97
2023-03-27T00:33:37.634Z,101749.41
2023-03-27T00:36:04.261Z,101748.59
2023-03-27T00:38:31.394Z,101752.06
2023-03-27T00:40:58.270Z,101750.22
2023-03-27T00:43:33.745Z,101752.06
2023-03-27T00:46:08.590Z,101755.34
2023-03-27T00:48:37.674Z,101759.63
2023-03-27T00:51:05.982Z,101754.34
2023-03-27T00:53:33.604Z,101757.16
2023-03-27T00:56:04.434Z,101765.13
2023-03-27T00:58:39.541Z,101769.78
2023-03-27T01:01:08.950Z,101767.97
2023-03-27T01:03:35.585Z,101766.34
2023-03-27T01:06:04.050Z,101780.00
2023-03-27T01:08:33.591Z,101784.25
2023-03-27T01:10:59.999Z,101793.81
2023-03-27T01:13:55.923Z,101796.06
2023-03-27T01:16:27.582Z,101787.69
2023-03-27T01:19:11.787Z,101802.53
2023-03-27T01:22:17.970Z,101807.47
2023-03-27T01:25:18.739Z,101810.75
2023-03-27T01:28:03.890Z,101822.97
2023-03-27T01:30:42.238Z,101813.00
2023-03-27T01:33:26.915Z,101819.94
2023-03-27T01:36:04.217Z,101820.31
2023-03-27T01:38:34.195Z,101819.69
2023-03-27T01:41:13.294Z,101825.84
2023-03-27T01:43:51.238Z,101828.66
2023-03-27T01:46:25.967Z,101827.84
2023-03-27T01:49:02.470Z,101824.78
2023-03-27T01:51:39.623Z,101822.53
2023-03-27T01:54:15.367Z,101834.13
2023-03-27T01:56:53.916Z,101834.72
2023-03-27T01:59:27.004Z,101832.09
2023-03-27T02:02:03.226Z,101838.00
2023-03-27T02:04:50.234Z,101842.09
2023-03-27T02:07:24.028Z,101844.91
2023-03-27T02:09:54.645Z,101849.38
2023-03-27T02:12:30.872Z,101859.56
2023-03-27T02:15:23.697Z,101860.31
2023-03-27T02:17:56.842Z,101859.84
2023-03-27T02:20:24.241Z,101865.91
2023-03-27T02:22:50.873Z,101870.34
2023-03-27T02:25:26.374Z,101866.00
2023-03-27T02:28:17.465Z,101876.91
2023-03-27T02:31:05.325Z,101882.97
2023-03-27T02:33:42.292Z,101870.50
2023-03-27T02:36:55.548Z,101881.66
2023-03-27T02:39:37.938Z,101878.94
2023-03-27T02:42:54.098Z,101881.97
2023-03-27T02:45:51.579Z,101874.16
2023-03-27T02:48:27.110Z,101889.59
2023-03-27T02:50:59.633Z,101890.16
2023-03-27T02:53:28.614Z,101891.09
2023-03-27T02:55:58.914Z,101885.53
2023-03-27T02:58:45.132Z,101891.03
2023-03-27T03:01:16.599Z,101903.25
2023-03-27T03:03:53.676Z,101909.34
2023-03-27T03:06:22.073Z,101909.78
2023-03-27T03:08:49.202Z,101909.41
2023-03-27T03:11:15.817Z,101916.78
2023-03-27T03:13:42.353Z,101911.78
2023-03-27T03:16:09.982Z,101911.41
2023-03-27T03:18:36.889Z,101917.69
2023-03-27T03:21:04.642Z,101920.72
2023-03-27T03:23:31.923Z,101931.66
2023-03-27T03:25:58.371Z,101938.53
2023-03-27T03:28:27.362Z,101945.38
2023-03-27T03:30:54.435Z,101934.06
2023-03-27T03:33:21.733Z,101935.63
2023-03-27T03:35:50.293Z,101946.78
2023-03-27T03:38:27.162Z,101949.97
2023-03-27T03:40:59.097Z,101962.09
2023-03-27T03:43:27.923Z,101970.41
2023-03-27T03:45:55.390Z,101968.47
2023-03-27T03:48:23.185Z,101977.59
2023-03-27T03:50:50.000Z,101980.44
2023-03-27T03:53:19.499Z,101980.97
2023-03-27T03:55:48.956Z,101982.13
2023-03-27T03:58:15.565Z,101988.16
2023-03-27T04:00:43.388Z,101986.06
2023-03-27T04:03:10.676Z,101994.16
2023-03-27T04:05:38.385Z,102002.28
2023-03-27T04:08:09.462Z,101990.25
2023-03-27T04:10:38.912Z,102000.81
2023-03-27T04:13:06.482Z,102005.47
2023-03-27T04:15:33.718Z,102003.16
2023-03-27T04:18:00.445Z,102006.00
2023-03-27T04:20:27.172Z,102009.44
2023-03-27T04:22:54.351Z,102010.44
2023-03-27T04:25:24.613Z,102006.81
2023-03-27T04:27:51.834Z,102014.75
2023-03-27T04:30:23.196Z,102021.47
2023-03-27T04:32:51.361Z,102016.19
2023-03-27T04:35:19.985Z,102035.22
2023-03-27T04:37:47.764Z,102032.94
2023-03-27T04:40:18.134Z,102034.47
2023-03-27T04:42:45.349Z,102039.13
2023-03-27T04:45:15.123Z,102051.41
2023-03-27T04:47:42.616Z,102060.31
2023-03-27T04:50:11.026Z,102056.88
2023-03-27T04:52:37.504Z,102057.03
2023-03-27T04:55:05.068Z,102050.59
2023-03-27T04:57:32.887Z,102056.16
2023-03-27T05:00:00.854Z,102059.25
2023-03-27T05:02:27.997Z,102060.09
2023-03-27T05:05:02.139Z,102052.81
2023-03-27T05:07:28.669Z,102057.09
2023-03-27T05:09:57.198Z,102061.72
2023-03-27T05:12:23.588Z,102061.88
2023-03-27T05:14:50.054Z,102070.84
2023-03-27T05:17:16.959Z,102071.66
2023-03-27T05:19:43.515Z,102071.84
2023-03-27T05:22:09.951Z,102081.75
2023-03-27T05:24:36.370Z,102092.13
2023-03-27T05:27:02.874Z,102088.69
2023-03-27T05:29:30.202Z,102100.25
2023-03-27T05:32:14.098Z,102099.59
2023-03-27T05:34:40.559Z,102105.88
2023-03-27T05:37:07.183Z,102097.16
2023-03-27T05:39:33.671Z,102101.94
2023-03-27T05:42:00.149Z,102102.94
2023-03-27T05:44:27.403Z,102105.75
2023-03-27T05:46:54.091Z,102104.09
2023-03-27T05:49:20.527Z,102106.56
2023-03-27T05:51:47.463Z,102108.22
2023-03-27T05:54:14.043Z,102107.06
2023-03-27T05:56:40.526Z,102109.50
2023-03-27T05:59:07.140Z,102109.50
2023-03-27T06:01:36.048Z,102112.81
2023-03-27T06:04:04.427Z,102117.88
2023-03-27T06:06:32.805Z,102101.03
2023-03-27T06:08:59.499Z,102101.94
2023-03-27T06:11:26.058Z,102112.03
2023-03-27T06:13:52.459Z,102103.59
2023-03-27T06:16:20.895Z,102118.97
2023-03-27T06:18:48.438Z,102123.06
2023-03-27T06:21:15.255Z,102127.44
2023-03-27T06:23:42.458Z,102127.81
2023-03-27T06:26:08.808Z,102126.25
2023-03-27T06:28:35.289Z,102132.00
2023-03-27T06:31:01.825Z,102127.19
2023-03-27T06:33:29.566Z,102140.69
2023-03-27T06:36:00.851Z,102147.09
2023-03-27T06:38:31.528Z,102153.13
2023-03-27T06:40:59.815Z,102156.13
2023-03-27T06:43:26.481Z,102155.59
2023-03-27T06:45:53.193Z,102152.13
2023-03-27T06:48:22.288Z,102150.66
2023-03-27T06:50:51.094Z,102148.88
2023-03-27T06:53:27.104Z,102163.50
2023-03-27T06:55:55.591Z,102164.28
2023-03-27T06:58:22.437Z,102170.47
2023-03-27T07:00:50.286Z,102174.03
2023-03-27T07:03:17.915Z,102165.16
2023-03-27T07:05:44.924Z,102168.88
2023-03-27T07:08:23.233Z,102165.28
2023-03-27T07:10:59.824Z,102167.16
2023-03-27T07:13:37.222Z,102177.25
2023-03-27T07:16:04.414Z,102186.53
2023-03-27T07:18:31.021Z,102191.72
2023-03-27T07:20:57.722Z,102195.31
2023-03-27T07:23:24.331Z,102193.94
2023-03-27T07:25:52.128Z,102199.34
2023-03-27T07:28:19.394Z,102196.56
2023-03-27T07:30:46.146Z,102204.00
2023-03-27T07:33:13.034Z,102207.75
2023-03-27T07:35:44.152Z,102213.78
2023-03-27T07:38:10.810Z,102209.44
2023-03-27T07:40:40.479Z,102214.53
2023-03-27T07:43:07.560Z,102213.59
2023-03-27T07:45:35.369Z,102228.22
2023-03-27T07:48:10.809Z,102219.91
2023-03-27T07:50:37.957Z,102226.06
2023-03-27T07:53:06.201Z,102230.00
2023-03-27T07:55:32.960Z,102238.41
2023-03-27T07:58:02.946Z,102230.84
2023-03-27T08:00:31.356Z,102240.91
2023-03-27T08:03:09.540Z,102240.50
2023-03-27T08:05:37.006Z,102232.75
2023-03-27T08:08:04.875Z,102239.09
2023-03-27T08:10:31.394Z,102235.44
2023-03-27T08:12:57.824Z,102238.31
2023-03-27T08:15:25.338Z,102240.97
2023-03-27T08:17:54.629Z,102252.63
2023-03-27T08:20:23.656Z,102260.84
2023-03-27T08:22:52.504Z,102262.69
2023-03-27T08:25:19.542Z,102262.69
2023-03-27T08:27:46.584Z,102271.91
2023-03-27T08:30:16.688Z,102273.13
2023-03-27T08:32:43.901Z,102274.38
2023-03-27T08:35:10.966Z,102280.50
2023-03-27T08:37:37.674Z,102279.84
2023-03-27T08:40:09.057Z,102288.25
2023-03-27T08:42:39.706Z,102273.09
2023-03-27T08:45:19.178Z,102283.31
2023-03-27T08:48:09.946Z,102279.75
2023-03-27T08:50:51.997Z,102289.25
2023-03-27T08:53:38.323Z,102296.88
2023-03-27T08:56:05.316Z,102291.09
2023-03-27T08:58:33.564Z,102304.38
2023-03-27T09:01:18.612Z,102309.84
2023-03-27T09:04:00.704Z,102319.41
2023-03-27T09:06:39.524Z,102319.41
2023-03-27T09:09:21.913Z,102323.19
2023-03-27T09:12:10.885Z,102328.38
2023-03-27T09:14:43.131Z,102318.81
2023-03-27T09:17:18.354Z,102316.41
2023-03-27T09:19:53.897Z,102321.38
2023-03-27T09:22:28.463Z,102327.81
2023-03-27T09:25:02.474Z,102361.72
2023-03-27T09:27:33.793Z,102392.63
2023-03-27T09:30:19.336Z,102394.63
2023-03-27T09:32:51.681Z,102413.09
2023-03-27T09:35:20.495Z,102423.94
2023-03-27T09:37:54.028Z,102423.41
2023-03-27T09:40:33.639Z,102414.44
2023-03-27T09:43:16.290Z,102388.47
2023-03-27T09:45:45.049Z,102384.00
2023-03-27T09:48:28.319Z,102382.22
2023-03-27T09:50:54.971Z,102377.88
2023-03-27T09:53:23.428Z,102375.34
2023-03-27T09:55:55.635Z,102381.28
2023-03-27T09:58:30.609Z,102381.81
2023-03-27T10:01:14.292Z,102387.50
2023-03-27T10:03:49.567Z,102378.50
2023-03-27T10:06:26.094Z,102375.41
2023-03-27T10:08:52.818Z,102372.53
2023-03-27T10:11:25.951Z,102383.00
2023-03-27T10:13:52.935Z,102374.53
2023-03-27T10:16:21.483Z,102380.22
2023-03-27T10:18:52.286Z,102374.25
2023-03-27T10:21:26.585Z,102375.22
2023-03-27T10:24:00.840Z,102370.53
2023-03-27T10:26:30.557Z,102364.28
2023-03-27T10:29:01.758Z,102358.28
2023-03-27T10:31:30.593Z,102362.66
2023-03-27T10:34:00.711Z,102372.34
2023-03-27T10:36:27.692Z,102375.13
2023-03-27T10:39:02.275Z,102360.16
2023-03-27T10:41:29.398Z,102370.00
2023-03-27T10:43:57.393Z,102367.34
2023-03-27T10:46:27.002Z,102385.59
2023-03-27T10:49:02.650Z,102396.91
2023-03-27T10:51:46.586Z,102388.44
2023-03-27T10:54:25.193Z,102386.66
2023-03-27T10:57:00.594Z,102382.78
2023-03-27T10:59:41.623Z,102384.78
2023-03-27T11:02:28.847Z,102383.25
2023-03-27T11:05:02.670Z,102388.19
2023-03-27T11:07:37.665Z,102383.75
2023-03-27T11:10:14.671Z,102389.31
2023-03-27T11:12:48.176Z,102390.97
2023-03-27T11:15:23.497Z,102393.22
2023-03-27T11:18:17.565Z,102390.34
2023-03-27T11:20:50.620Z,102380.97
2023-03-27T11:23:28.613Z,102395.09
2023-03-27T11:25:59.755Z,102402.31
2023-03-27T11:28:53.621Z,102412.50
2023-03-27T11:31:29.203Z,102429.69
2023-03-27T11:34:06.181Z,102460.88
2023-03-27T11:36:57.875Z,102470.13
2023-03-27T11:39:48.399Z,102489.78
2023-03-27T11:42:17.696Z,102467.53
2023-03-27T11:44:44.931Z,102463.59
2023-03-27T11:47:42.596Z,102459.94
2023-03-27T11:50:31.104Z,102472.13
2023-03-27T11:53:12.219Z,102465.22
2023-03-27T11:56:10.988Z,102464.56
2023-03-27T11:58:46.142Z,102457.03
2023-03-27T12:01:21.705Z,102466.38
2023-03-27T12:03:57.684Z,102461.97
2023-03-27T12:07:04.604Z,102460.00
2023-03-27T12:09:52.503Z,102460.34
2023-03-27T12:12:43.780Z,102451.13
2023-03-27T12:15:22.790Z,102435.03
2023-03-27T12:17:55.215Z,102434.91
2023-03-27T12:20:24.596Z,102468.13
2023-03-27T12:22:58.722Z,102458.25
2023-03-27T12:25:58.668Z,102478.09
2023-03-27T12:28:30.665Z,102477.97
2023-03-27T12:31:03.975Z,102478.94
2023-03-27T12:33:48.403Z,102498.50
2023-03-27T12:36:19.478Z,102502.88
2023-03-27T12:38:46.832Z,102497.13
2023-03-27T12:41:43.237Z,102525.13
2023-03-27T12:44:13.315Z,102526.38
2023-03-27T12:46:41.968Z,102516.31
2023-03-27T12:49:10.733Z,102515.06
2023-03-27T12:51:57.920Z,102520.59
2023-03-27T12:54:27.371Z,102515.09
2023-03-27T12:57:18.036Z,102501.75
2023-03-27T12:59:57.785Z,102510.28
2023-03-27T13:03:02.786Z,102505.47
2023-03-27T13:05:35.193Z,102511.56
2023-03-27T13:08:08.092Z,102508.03
2023-03-27T13:11:19.310Z,102505.94
2023-03-27T13:14:04.692Z,102500.88
2023-03-27T13:16:55.701Z,102494.13
2023-03-27T13:19:32.674Z,102504.03
2023-03-27T13:22:14.112Z,102492.56
2023-03-27T13:25:02.338Z,102496.31
2023-03-27T13:27:53.223Z,102492.63
2023-03-27T13:30:45.432Z,102510.47
2023-03-27T13:33:31.741Z,102504.44
2023-03-27T13:35:58.471Z,102494.72
2023-03-27T13:38:52.728Z,102509.31
2023-03-27T13:41:54.123Z,102511.81
2023-03-27T13:44:33.988Z,102513.88
2023-03-27T13:47:26.336Z,102513.75
2023-03-27T13:50:30.918Z,102504.09
2023-03-27T13:53:20.422Z,102502.34
2023-03-27T13:56:27.326Z,102502.09
2023-03-27T13:59:12.931Z,102498.91
2023-03-27T14:01:52.786Z,102500.59
2023-03-27T14:04:34.439Z,102495.84
2023-03-27T14:07:13.096Z,102500.69
2023-03-27T14:10:16.769Z,102496.66
2023-03-27T14:12:46.038Z,102495.84
2023-03-27T14:15:26.695Z,102490.56
2023-03-27T14:18:45.222Z,102486.53
2023-03-27T14:21:27.553Z,102504.88
2023-03-27T14:24:32.382Z,102501.22
2023-03-27T14:27:01.100Z,102491.09
2023-03-27T14:29:28.906Z,102503.59
2023-03-27T14:32:12.147Z,102504.06
2023-03-27T14:37:35.970Z,102509.00
2023-03-27T14:40:18.948Z,102517.31
2023-03-27T14:42:46.889Z,102512.19
2023-03-27T14:45:23.598Z,102510.44
2023-03-27T14:47:54.612Z,102514.72
2023-03-27T14:50:21.534Z,102517.78
2023-03-27T14:52:52.793Z,102523.16
2023-03-27T14:55:19.569Z,102512.91
2023-03-27T14:57:49.664Z,102524.72
2023-03-27T15:00:23.467Z,102529.25
2023-03-27T15:02:53.138Z,102533.75
2023-03-27T15:05:24.204Z,102543.97
2023-03-27T15:07:51.695Z,102533.97
2023-03-27T15:10:24.332Z,102535.69
2023-03-27T15:12:51.245Z,102529.69
2023-03-27T15:15:38.500Z,102525.34
2023-03-27T15:18:14.969Z,102533.47
2023-03-27T15:20:42.293Z,102522.91
2023-03-27T15:23:20.229Z,102535.50
2023-03-27T15:25:56.159Z,102543.75
2023-03-27T15:28:30.521Z,102549.56
2023-03-27T15:31:01.350Z,102550.53
2023-03-27T15:33:37.360Z,102543.44
2023-03-27T15:36:22.432Z,102543.06
2023-03-27T15:38:51.015Z,102559.59
2023-03-27T15:41:17.742Z,102555.09
2023-03-27T15:43:44.529Z,102565.19
2023-03-27T15:46:17.563Z,102564.38
2023-03-27T15:48:47.328Z,102565.63
2023-03-27T15:51:27.626Z,102569.03
2023-03-27T15:53:57.885Z,102577.09
2023-03-27T15:56:43.896Z,102588.00
2023-03-27T15:59:14.013Z,102582.63
2023-03-27T16:01:47.579Z,102578.91
2023-03-27T16:04:19.939Z,102589.41
2023-03-27T16:06:51.131Z,102592.06
2023-03-27T16:09:25.742Z,102600.06
2023-03-27T16:11:54.269Z,102599.50
2023-03-27T16:14:26.620Z,102602.03
2023-03-27T16:17:25.121Z,102604.94
2023-03-27T16:19:57.768Z,102605.81
2023-03-27T16:22:29.519Z,102614.63
2023-03-27T16:24:56.612Z,102621.22
2023-03-27T16:27:26.619Z,102614.63
2023-03-27T16:29:53.615Z,102623.88
2023-03-27T16:32:22.025Z,102619.97
2023-03-27T16:34:51.426Z,102626.75
2023-03-27T16:37:25.131Z,102618.31
2023-03-27T16:39:52.686Z,102618.31
2023-03-27T16:42:25.684Z,102623.66
2023-03-27T16:44:53.033Z,102619.97
2023-03-27T16:47:20.522Z,102627.34
2023-03-27T16:49:56.288Z,102638.88
2023-03-27T16:52:33.914Z,102634.13
2023-03-27T16:55:00.403Z,102631.84
2023-03-27T16:57:26.864Z,102641.66
2023-03-27T16:59:53.499Z,102639.16
2023-03-27T17:02:19.893Z,102644.47
2023-03-27T17:04:46.551Z,102656.75
2023-03-27T17:07:12.925Z,102660.75
2023-03-27T17:09:39.256Z,102670.88
2023-03-27T17:12:06.013Z,102668.44
2023-03-27T17:14:32.462Z,102661.78
2023-03-27T17:16:58.989Z,102665.06
2023-03-27T17:19:25.433Z,102677.31
2023-03-27T17:21:51.832Z,102677.00
2023-03-27T17:24:19.816Z,102676.56
2023-03-27T17:26:46.430Z,102679.78
2023-03-27T17:29:13.032Z,102678.78
2023-03-27T17:31:39.514Z,102687.22
2023-03-27T17:34:06.680Z,102682.72
2023-03-27T17:36:40.208Z,102684.56
2023-03-27T17:39:09.686Z,102689.50
2023-03-27T17:41:36.194Z,102682.44
2023-03-27T17:44:02.620Z,102679.34
2023-03-27T17:46:29.085Z,102697.09
2023-03-27T17:48:57.109Z,102698.88
2023-03-27T17:51:23.760Z,102702.69
2023-03-27T17:53:50.524Z,102699.97
2023-03-27T17:56:16.886Z,102707.69
2023-03-27T17:58:43.894Z,102706.59
2023-03-27T18:01:19.045Z,102702.88
2023-03-27T18:03:46.652Z,102706.75
2023-03-27T18:06:14.686Z,102707.91
2023-03-27T18:08:41.434Z,102710.13
2023-03-27T18:11:10.396Z,102711.91
2023-03-27T18:13:38.365Z,102721.28
2023-03-27T18:16:08.604Z,102727.97
2023-03-27T18:18:35.420Z,102728.88
2023-03-27T18:21:02.314Z,102732.31
2023-03-27T18:23:28.818Z,102730.22
2023-03-27T18:25:55.526Z,102738.09
2023-03-27T18:28:22.435Z,102740.19
2023-03-27T18:30:58.502Z,102737.44
2023-03-27T18:33:25.097Z,102748.63
2023-03-27T18:35:56.135Z,102746.88
2023-03-27T18:38:24.551Z,102750.72
2023-03-27T18:40:51.343Z,102746.78
2023-03-27T18:43:18.313Z,102744.66
2023-03-27T18:45:45.217Z,102743.75
2023-03-27T18:48:11.725Z,102748.97
2023-03-27T18:50:38.110Z,102746.84
2023-03-27T18:53:05.087Z,102748.03
2023-03-27T18:55:32.349Z,102756.38
2023-03-27T18:57:58.817Z,102755.22
2023-03-27T19:00:25.233Z,102755.97
2023-03-27T19:02:51.752Z,102756.31
2023-03-27T19:05:18.493Z,102765.47
2023-03-27T19:07:45.355Z,102772.31
2023-03-27T19:10:12.798Z,102773.84
2023-03-27T19:12:39.331Z,102782.16
2023-03-27T19:15:18.973Z,102774.75
2023-03-27T19:17:46.724Z,102770.13
2023-03-27T19:20:13.698Z,102775.97
2023-03-27T19:22:40.155Z,102772.84
2023-03-27T19:25:07.201Z,102768.72
2023-03-27T19:27:39.011Z,102769.88
2023-03-27T19:30:07.688Z,102767.94
2023-03-27T19:32:34.279Z,102767.97
2023-03-27T19:35:00.794Z,102769.34
2023-03-27T19:37:27.329Z,102762.72
2023-03-27T19:39:53.792Z,102762.59
2023-03-27T19:42:20.212Z,102763.78
2023-03-27T19:44:46.658Z,102760.28
2023-03-27T19:47:13.108Z,102761.00
2023-03-27T19:49:39.993Z,102763.81
2023-03-27T19:52:07.230Z,102760.88
2023-03-27T19:54:33.645Z,102765.16
2023-03-27T19:57:00.332Z,102764.50
2023-03-27T19:59:30.788Z,102763.19
2023-03-27T20:01:58.487Z,102764.38
2023-03-27T20:04:25.362Z,102763.41
2023-03-27T20:06:51.823Z,102767.22
2023-03-27T20:09:18.925Z,102771.06
2023-03-27T20:11:46.396Z,102769.41
2023-03-27T20:14:13.298Z,102768.56
2023-03-27T20:16:39.698Z,102766.91
2023-03-27T20:19:06.812Z,102766.28
2023-03-27T20:21:40.692Z,102772.56
2023-03-27T20:24:10.127Z,102764.75
2023-03-27T20:26:40.598Z,102776.34
2023-03-27T20:29:13.230Z,102766.94
2023-03-27T20:31:40.818Z,102768.94
2023-03-27T20:34:08.150Z,102782.16
2023-03-27T20:36:35.459Z,102773.94
2023-03-27T20:39:04.699Z,102776.91
2023-03-27T20:41:38.698Z,102790.47
2023-03-27T20:44:15.285Z,102795.97
2023-03-27T20:46:47.375Z,102794.31
2023-03-27T20:49:37.654Z,102793.81
2023-03-27T20:52:08.182Z,102788.19
2023-03-27T20:54:34.750Z,102795.00
2023-03-27T20:57:02.492Z,102795.50
2023-03-27T20:59:30.540Z,102793.50
2023-03-27T21:01:57.629Z,102787.72
2023-03-27T21:04:25.986Z,102795.19
2023-03-27T21:06:54.875Z,102787.75
2023-03-27T21:09:25.912Z,102784.09
2023-03-27T21:11:54.367Z,102788.91
2023-03-27T21:14:21.052Z,102783.13
2023-03-27T21:16:47.694Z,102789.72
2023-03-27T21:19:14.201Z,102791.56
2023-03-27T21:21:40.852Z,102789.91
2023-03-27T21:24:07.338Z,102793.00
2023-03-27T21:26:34.506Z,102794.84
2023-03-27T21:29:01.215Z,102806.06
2023-03-27T21:31:27.736Z,102804.78
2023-03-27T21:33:54.238Z,102798.63
2023-03-27T21:36:21.069Z,102802.75
2023-03-27T21:38:47.703Z,102805.72
2023-03-27T21:41:15.795Z,102808.38
2023-03-27T21:43:42.246Z,102808.88
2023-03-27T21:46:08.842Z,102809.34
2023-03-27T21:48:35.330Z,102811.50
2023-03-27T21:51:03.486Z,102806.34
2023-03-27T21:53:30.172Z,102808.31
2023-03-27T21:55:57.466Z,102808.63
2023-03-27T21:58:25.007Z,102811.25
2023-03-27T22:00:51.483Z,102821.34
2023-03-27T22:03:18.476Z,102821.78
2023-03-27T22:05:49.124Z,102826.56
2023-03-27T22:08:21.538Z,102827.91
2023-03-27T22:10:48.000Z,102825.25
2023-03-27T22:13:14.369Z,102832.34
2023-03-27T22:15:40.949Z,102838.28
2023-03-27T22:18:07.437Z,102832.50
2023-03-27T22:20:33.922Z,102828.50
2023-03-27T22:23:00.501Z,102826.84
2023-03-27T22:25:27.036Z,102828.69
2023-03-27T22:27:53.384Z,102821.56
2023-03-27T22:30:19.841Z,102829.66
2023-03-27T22:32:46.304Z,102833.28
2023-03-27T22:35:13.291Z,102834.28
2023-03-27T22:37:40.491Z,102842.19
2023-03-27T22:40:07.979Z,102839.72
2023-03-27T22:42:34.681Z,102834.75
2023-03-27T22:45:01.025Z,102847.28
2023-03-27T22:47:27.798Z,102847.09
2023-03-27T22:49:54.494Z,102845.06
2023-03-27T22:52:21.028Z,102846.50
2023-03-27T22:54:47.496Z,102846.69
2023-03-27T22:57:13.956Z,102851.28
2023-03-27T22:59:40.343Z,102856.88
2023-03-27T23:02:07.098Z,102852.44
2023-03-27T23:04:33.705Z,102854.38
2023-03-27T23:07:01.502Z,102859.50
2023-03-27T23:09:28.018Z,102856.88
2023-03-27T23:11:54.440Z,102853.72
2023-03-27T23:14:20.914Z,102852.06
2023-03-27T23:16:47.436Z,102855.53
2023-03-27T23:19:13.888Z,102855.38
2023-03-27T23:21:40.294Z,102852.06
2023-03-27T23:24:07.061Z,102855.53
2023-03-27T23:26:33.585Z,102864.75
2023-03-27T23:29:00.302Z,102855.47
2023-03-27T23:31:26.810Z,102867.47
2023-03-27T23:33:53.282Z,102861.16
2023-03-27T23:36:22.887Z,102865.94
2023-03-27T23:38:51.458Z,102856.78
2023-03-27T23:41:17.986Z,102856.25
2023-03-27T23:43:45.277Z,102856.56
2023-03-27T23:46:12.261Z,102856.56
2023-03-27T23:48:39.987Z,102867.78
2023-03-27T23:51:07.490Z,102854.25
2023-03-27T23:53:34.611Z,102861.78
2023-03-27T23:56:01.324Z,102862.25
2023-03-27T23:58:32.120Z,102863.38
